sensor_id;sensor_type;location;lat;lon;timestamp;P1;durP1;ratioP1;P2;durP2;ratioP2
59770;SDS011;45649;53.014;6.600;2023-05-07T00:01:44;18.33;;;16.07;;
59770;SDS011;45649;53.014;6.600;2023-05-07T00:04:10;18.47;;;16.43;;
59770;SDS011;45649;53.014;6.600;2023-05-07T00:06:36;18.83;;;16.13;;
59770;SDS011;45649;53.014;6.600;2023-05-07T00:09:02;18.70;;;16.50;;
59770;SDS011;45649;53.014;6.600;2023-05-07T00:11:29;18.20;;;16.50;;
59770;SDS011;45649;53.014;6.600;2023-05-07T00:13:55;17.90;;;16.10;;
59770;SDS011;45649;53.014;6.600;2023-05-07T00:16:21;18.80;;;16.90;;
59770;SDS011;45649;53.014;6.600;2023-05-07T00:18:47;18.83;;;16.83;;
59770;SDS011;45649;53.014;6.600;2023-05-07T00:21:14;19.13;;;17.13;;
59770;SDS011;45649;53.014;6.600;2023-05-07T00:23:40;20.00;;;17.87;;
59770;SDS011;45649;53.014;6.600;2023-05-07T00:26:06;19.10;;;17.10;;
59770;SDS011;45649;53.014;6.600;2023-05-07T00:28:32;21.52;;;19.40;;
59770;SDS011;45649;53.014;6.600;2023-05-07T00:30:58;19.27;;;17.50;;
59770;SDS011;45649;53.014;6.600;2023-05-07T00:33:24;22.60;;;18.43;;
59770;SDS011;45649;53.014;6.600;2023-05-07T00:35:51;20.47;;;18.30;;
59770;SDS011;45649;53.014;6.600;2023-05-07T00:38:19;21.30;;;18.37;;
59770;SDS011;45649;53.014;6.600;2023-05-07T00:40:45;19.67;;;17.67;;
59770;SDS011;45649;53.014;6.600;2023-05-07T00:43:11;22.17;;;18.00;;
59770;SDS011;45649;53.014;6.600;2023-05-07T00:45:37;21.27;;;18.63;;
59770;SDS011;45649;53.014;6.600;2023-05-07T00:48:04;21.03;;;18.80;;
59770;SDS011;45649;53.014;6.600;2023-05-07T00:50:30;21.13;;;18.47;;
59770;SDS011;45649;53.014;6.600;2023-05-07T00:52:57;21.60;;;19.40;;
59770;SDS011;45649;53.014;6.600;2023-05-07T00:55:23;22.47;;;20.13;;
59770;SDS011;45649;53.014;6.600;2023-05-07T00:57:49;22.90;;;19.33;;
59770;SDS011;45649;53.014;6.600;2023-05-07T01:00:16;22.07;;;18.77;;
59770;SDS011;45649;53.014;6.600;2023-05-07T01:02:43;23.23;;;20.30;;
59770;SDS011;45649;53.014;6.600;2023-05-07T01:05:11;22.90;;;20.37;;
59770;SDS011;45649;53.014;6.600;2023-05-07T01:07:38;25.00;;;20.23;;
59770;SDS011;45649;53.014;6.600;2023-05-07T01:10:05;21.93;;;19.00;;
59770;SDS011;45649;53.014;6.600;2023-05-07T01:12:32;21.97;;;19.67;;
59770;SDS011;45649;53.014;6.600;2023-05-07T01:14:58;20.93;;;18.70;;
59770;SDS011;45649;53.014;6.600;2023-05-07T01:17:25;21.73;;;19.63;;
59770;SDS011;45649;53.014;6.600;2023-05-07T01:19:51;20.77;;;18.57;;
59770;SDS011;45649;53.014;6.600;2023-05-07T01:22:26;24.23;;;21.03;;
59770;SDS011;45649;53.014;6.600;2023-05-07T01:24:54;22.57;;;20.00;;
59770;SDS011;45649;53.014;6.600;2023-05-07T01:27:22;22.77;;;20.23;;
59770;SDS011;45649;53.014;6.600;2023-05-07T01:29:51;22.83;;;20.47;;
59770;SDS011;45649;53.014;6.600;2023-05-07T01:32:18;24.00;;;21.33;;
59770;SDS011;45649;53.014;6.600;2023-05-07T01:34:46;23.50;;;21.10;;
59770;SDS011;45649;53.014;6.600;2023-05-07T01:37:14;24.63;;;22.07;;
59770;SDS011;45649;53.014;6.600;2023-05-07T01:39:40;23.47;;;20.97;;
59770;SDS011;45649;53.014;6.600;2023-05-07T01:42:06;23.57;;;20.90;;
59770;SDS011;45649;53.014;6.600;2023-05-07T01:44:32;24.00;;;21.60;;
59770;SDS011;45649;53.014;6.600;2023-05-07T01:46:59;24.63;;;21.93;;
59770;SDS011;45649;53.014;6.600;2023-05-07T01:49:25;23.97;;;21.47;;
59770;SDS011;45649;53.014;6.600;2023-05-07T01:51:51;23.70;;;21.20;;
59770;SDS011;45649;53.014;6.600;2023-05-07T01:54:17;23.57;;;21.13;;
59770;SDS011;45649;53.014;6.600;2023-05-07T01:56:44;23.47;;;21.07;;
59770;SDS011;45649;53.014;6.600;2023-05-07T01:59:13;23.73;;;21.23;;
59770;SDS011;45649;53.014;6.600;2023-05-07T02:04:15;25.87;;;22.03;;
59770;SDS011;45649;53.014;6.600;2023-05-07T02:06:41;25.97;;;22.23;;
59770;SDS011;45649;53.014;6.600;2023-05-07T02:09:07;25.57;;;22.03;;
59770;SDS011;45649;53.014;6.600;2023-05-07T02:11:34;25.37;;;22.63;;
59770;SDS011;45649;53.014;6.600;2023-05-07T02:14:00;24.70;;;22.23;;
59770;SDS011;45649;53.014;6.600;2023-05-07T02:16:26;28.10;;;24.10;;
59770;SDS011;45649;53.014;6.600;2023-05-07T02:18:52;25.17;;;22.57;;
59770;SDS011;45649;53.014;6.600;2023-05-07T02:21:18;25.47;;;22.40;;
59770;SDS011;45649;53.014;6.600;2023-05-07T02:23:44;27.07;;;24.07;;
59770;SDS011;45649;53.014;6.600;2023-05-07T02:26:10;27.50;;;23.57;;
59770;SDS011;45649;53.014;6.600;2023-05-07T02:28:36;27.30;;;24.50;;
59770;SDS011;45649;53.014;6.600;2023-05-07T02:31:03;27.17;;;24.27;;
59770;SDS011;45649;53.014;6.600;2023-05-07T02:33:29;27.87;;;24.73;;
59770;SDS011;45649;53.014;6.600;2023-05-07T02:35:59;28.70;;;25.70;;
59770;SDS011;45649;53.014;6.600;2023-05-07T02:38:30;30.43;;;26.70;;
59770;SDS011;45649;53.014;6.600;2023-05-07T02:40:56;28.50;;;25.27;;
59770;SDS011;45649;53.014;6.600;2023-05-07T02:43:22;31.67;;;27.10;;
59770;SDS011;45649;53.014;6.600;2023-05-07T02:45:48;30.87;;;26.50;;
59770;SDS011;45649;53.014;6.600;2023-05-07T02:48:15;29.67;;;26.47;;
59770;SDS011;45649;53.014;6.600;2023-05-07T02:50:41;32.57;;;27.53;;
59770;SDS011;45649;53.014;6.600;2023-05-07T02:53:07;31.63;;;27.83;;
59770;SDS011;45649;53.014;6.600;2023-05-07T02:55:33;30.90;;;27.43;;
59770;SDS011;45649;53.014;6.600;2023-05-07T02:57:59;33.63;;;27.80;;
59770;SDS011;45649;53.014;6.600;2023-05-07T03:00:25;32.73;;;27.90;;
59770;SDS011;45649;53.014;6.600;2023-05-07T03:02:51;34.73;;;28.83;;
59770;SDS011;45649;53.014;6.600;2023-05-07T03:05:17;31.23;;;27.83;;
59770;SDS011;45649;53.014;6.600;2023-05-07T03:07:43;33.33;;;29.03;;
59770;SDS011;45649;53.014;6.600;2023-05-07T03:10:11;33.37;;;27.90;;
59770;SDS011;45649;53.014;6.600;2023-05-07T03:12:37;33.27;;;28.83;;
59770;SDS011;45649;53.014;6.600;2023-05-07T03:15:03;34.50;;;29.30;;
59770;SDS011;45649;53.014;6.600;2023-05-07T03:17:29;37.67;;;31.43;;
59770;SDS011;45649;53.014;6.600;2023-05-07T03:19:55;37.00;;;30.73;;
59770;SDS011;45649;53.014;6.600;2023-05-07T03:22:21;36.20;;;29.77;;
59770;SDS011;45649;53.014;6.600;2023-05-07T03:24:47;37.00;;;30.77;;
59770;SDS011;45649;53.014;6.600;2023-05-07T03:27:13;38.92;;;34.22;;
59770;SDS011;45649;53.014;6.600;2023-05-07T03:29:40;36.93;;;31.57;;
59770;SDS011;45649;53.014;6.600;2023-05-07T03:32:06;37.17;;;30.97;;
59770;SDS011;45649;53.014;6.600;2023-05-07T03:34:32;36.90;;;30.83;;
59770;SDS011;45649;53.014;6.600;2023-05-07T03:36:58;37.07;;;31.70;;
59770;SDS011;45649;53.014;6.600;2023-05-07T03:39:24;36.30;;;30.43;;
59770;SDS011;45649;53.014;6.600;2023-05-07T03:41:50;37.90;;;30.50;;
59770;SDS011;45649;53.014;6.600;2023-05-07T03:44:16;36.10;;;30.97;;
59770;SDS011;45649;53.014;6.600;2023-05-07T03:46:42;37.17;;;31.77;;
59770;SDS011;45649;53.014;6.600;2023-05-07T03:49:08;36.93;;;30.47;;
59770;SDS011;45649;53.014;6.600;2023-05-07T03:51:34;39.50;;;31.03;;
59770;SDS011;45649;53.014;6.600;2023-05-07T03:54:01;42.33;;;31.60;;
59770;SDS011;45649;53.014;6.600;2023-05-07T03:56:27;41.07;;;32.23;;
59770;SDS011;45649;53.014;6.600;2023-05-07T03:58:53;39.87;;;30.67;;
59770;SDS011;45649;53.014;6.600;2023-05-07T04:01:19;38.27;;;29.70;;
59770;SDS011;45649;53.014;6.600;2023-05-07T04:03:45;39.43;;;32.30;;
59770;SDS011;45649;53.014;6.600;2023-05-07T04:06:11;37.17;;;30.60;;
59770;SDS011;45649;53.014;6.600;2023-05-07T04:08:37;37.50;;;31.43;;
59770;SDS011;45649;53.014;6.600;2023-05-07T04:11:03;36.10;;;30.80;;
59770;SDS011;45649;53.014;6.600;2023-05-07T04:13:30;37.87;;;30.13;;
59770;SDS011;45649;53.014;6.600;2023-05-07T04:15:56;36.17;;;30.77;;
59770;SDS011;45649;53.014;6.600;2023-05-07T04:18:22;39.90;;;31.70;;
59770;SDS011;45649;53.014;6.600;2023-05-07T04:20:48;34.50;;;29.73;;
59770;SDS011;45649;53.014;6.600;2023-05-07T04:23:15;40.03;;;30.93;;
59770;SDS011;45649;53.014;6.600;2023-05-07T04:25:41;38.83;;;31.10;;
59770;SDS011;45649;53.014;6.600;2023-05-07T04:28:07;35.53;;;29.50;;
59770;SDS011;45649;53.014;6.600;2023-05-07T04:30:33;32.67;;;29.13;;
59770;SDS011;45649;53.014;6.600;2023-05-07T04:32:59;34.80;;;29.77;;
59770;SDS011;45649;53.014;6.600;2023-05-07T04:35:26;33.17;;;28.70;;
59770;SDS011;45649;53.014;6.600;2023-05-07T04:37:52;33.20;;;29.43;;
59770;SDS011;45649;53.014;6.600;2023-05-07T04:40:18;33.43;;;28.73;;
59770;SDS011;45649;53.014;6.600;2023-05-07T04:42:45;33.00;;;29.30;;
59770;SDS011;45649;53.014;6.600;2023-05-07T04:45:11;33.90;;;28.27;;
59770;SDS011;45649;53.014;6.600;2023-05-07T04:47:38;36.07;;;28.57;;
59770;SDS011;45649;53.014;6.600;2023-05-07T04:50:04;32.17;;;27.67;;
59770;SDS011;45649;53.014;6.600;2023-05-07T04:52:31;29.93;;;26.67;;
59770;SDS011;45649;53.014;6.600;2023-05-07T04:54:58;31.77;;;27.93;;
59770;SDS011;45649;53.014;6.600;2023-05-07T04:57:25;33.33;;;27.93;;
59770;SDS011;45649;53.014;6.600;2023-05-07T04:59:51;32.10;;;27.63;;
59770;SDS011;45649;53.014;6.600;2023-05-07T05:02:17;30.90;;;27.00;;
59770;SDS011;45649;53.014;6.600;2023-05-07T05:04:44;32.50;;;28.20;;
59770;SDS011;45649;53.014;6.600;2023-05-07T05:07:10;30.83;;;26.30;;
59770;SDS011;45649;53.014;6.600;2023-05-07T05:09:36;31.83;;;27.90;;
59770;SDS011;45649;53.014;6.600;2023-05-07T05:12:02;31.80;;;27.03;;
59770;SDS011;45649;53.014;6.600;2023-05-07T05:14:28;31.17;;;27.07;;
59770;SDS011;45649;53.014;6.600;2023-05-07T05:16:55;30.03;;;26.03;;
59770;SDS011;45649;53.014;6.600;2023-05-07T05:19:21;28.20;;;25.20;;
59770;SDS011;45649;53.014;6.600;2023-05-07T05:21:47;29.87;;;26.10;;
59770;SDS011;45649;53.014;6.600;2023-05-07T05:24:13;28.50;;;25.43;;
59770;SDS011;45649;53.014;6.600;2023-05-07T05:26:40;28.43;;;25.30;;
59770;SDS011;45649;53.014;6.600;2023-05-07T05:29:06;27.37;;;23.97;;
59770;SDS011;45649;53.014;6.600;2023-05-07T05:31:32;29.13;;;25.93;;
59770;SDS011;45649;53.014;6.600;2023-05-07T05:33:58;28.37;;;25.37;;
59770;SDS011;45649;53.014;6.600;2023-05-07T05:36:25;26.97;;;23.93;;
59770;SDS011;45649;53.014;6.600;2023-05-07T05:38:51;28.67;;;25.57;;
59770;SDS011;45649;53.014;6.600;2023-05-07T05:41:17;27.00;;;24.20;;
59770;SDS011;45649;53.014;6.600;2023-05-07T05:43:43;25.97;;;23.20;;
59770;SDS011;45649;53.014;6.600;2023-05-07T05:46:09;26.43;;;23.67;;
59770;SDS011;45649;53.014;6.600;2023-05-07T05:48:36;27.03;;;24.23;;
59770;SDS011;45649;53.014;6.600;2023-05-07T05:51:02;28.60;;;25.07;;
59770;SDS011;45649;53.014;6.600;2023-05-07T05:53:28;25.30;;;22.47;;
59770;SDS011;45649;53.014;6.600;2023-05-07T05:55:55;27.10;;;23.90;;
59770;SDS011;45649;53.014;6.600;2023-05-07T05:58:21;27.60;;;24.70;;
59770;SDS011;45649;53.014;6.600;2023-05-07T06:00:47;26.87;;;24.00;;
59770;SDS011;45649;53.014;6.600;2023-05-07T06:03:13;26.70;;;23.90;;
59770;SDS011;45649;53.014;6.600;2023-05-07T06:05:39;25.77;;;22.97;;
59770;SDS011;45649;53.014;6.600;2023-05-07T06:08:06;25.50;;;22.90;;
59770;SDS011;45649;53.014;6.600;2023-05-07T06:10:32;25.93;;;23.13;;
59770;SDS011;45649;53.014;6.600;2023-05-07T06:12:59;26.00;;;23.30;;
59770;SDS011;45649;53.014;6.600;2023-05-07T06:15:25;26.70;;;23.37;;
59770;SDS011;45649;53.014;6.600;2023-05-07T06:17:51;27.33;;;23.33;;
59770;SDS011;45649;53.014;6.600;2023-05-07T06:20:17;24.70;;;22.10;;
59770;SDS011;45649;53.014;6.600;2023-05-07T06:22:43;26.67;;;23.33;;
59770;SDS011;45649;53.014;6.600;2023-05-07T06:25:09;25.93;;;23.23;;
59770;SDS011;45649;53.014;6.600;2023-05-07T06:27:35;26.07;;;23.37;;
59770;SDS011;45649;53.014;6.600;2023-05-07T06:30:01;26.23;;;23.43;;
59770;SDS011;45649;53.014;6.600;2023-05-07T06:32:28;28.33;;;23.73;;
59770;SDS011;45649;53.014;6.600;2023-05-07T06:34:54;27.17;;;24.27;;
59770;SDS011;45649;53.014;6.600;2023-05-07T06:37:20;26.30;;;23.50;;
59770;SDS011;45649;53.014;6.600;2023-05-07T06:39:46;28.70;;;25.90;;
59770;SDS011;45649;53.014;6.600;2023-05-07T06:42:12;27.73;;;24.93;;
59770;SDS011;45649;53.014;6.600;2023-05-07T06:44:38;27.00;;;24.03;;
59770;SDS011;45649;53.014;6.600;2023-05-07T06:47:05;26.33;;;22.70;;
59770;SDS011;45649;53.014;6.600;2023-05-07T06:49:31;26.30;;;23.50;;
59770;SDS011;45649;53.014;6.600;2023-05-07T06:51:57;26.73;;;23.93;;
59770;SDS011;45649;53.014;6.600;2023-05-07T06:54:23;25.97;;;23.37;;
59770;SDS011;45649;53.014;6.600;2023-05-07T06:56:49;26.80;;;24.00;;
59770;SDS011;45649;53.014;6.600;2023-05-07T06:59:15;27.50;;;24.67;;
59770;SDS011;45649;53.014;6.600;2023-05-07T07:01:42;27.70;;;24.60;;
59770;SDS011;45649;53.014;6.600;2023-05-07T07:04:08;26.67;;;23.87;;
59770;SDS011;45649;53.014;6.600;2023-05-07T07:06:34;28.53;;;25.53;;
59770;SDS011;45649;53.014;6.600;2023-05-07T07:09:00;26.67;;;23.93;;
59770;SDS011;45649;53.014;6.600;2023-05-07T07:11:26;27.87;;;24.97;;
59770;SDS011;45649;53.014;6.600;2023-05-07T07:13:52;29.40;;;25.30;;
59770;SDS011;45649;53.014;6.600;2023-05-07T07:16:19;29.10;;;25.27;;
59770;SDS011;45649;53.014;6.600;2023-05-07T07:18:45;27.97;;;24.97;;
59770;SDS011;45649;53.014;6.600;2023-05-07T07:21:12;26.90;;;24.00;;
59770;SDS011;45649;53.014;6.600;2023-05-07T07:23:38;27.20;;;24.40;;
59770;SDS011;45649;53.014;6.600;2023-05-07T07:26:04;28.47;;;25.57;;
59770;SDS011;45649;53.014;6.600;2023-05-07T07:28:31;27.77;;;24.77;;
59770;SDS011;45649;53.014;6.600;2023-05-07T07:30:57;28.50;;;25.40;;
59770;SDS011;45649;53.014;6.600;2023-05-07T07:33:23;29.03;;;25.93;;
59770;SDS011;45649;53.014;6.600;2023-05-07T07:35:49;28.57;;;25.57;;
59770;SDS011;45649;53.014;6.600;2023-05-07T07:38:15;29.80;;;26.70;;
59770;SDS011;45649;53.014;6.600;2023-05-07T07:40:42;30.07;;;26.77;;
59770;SDS011;45649;53.014;6.600;2023-05-07T07:43:09;30.43;;;26.83;;
59770;SDS011;45649;53.014;6.600;2023-05-07T07:45:35;29.97;;;26.83;;
59770;SDS011;45649;53.014;6.600;2023-05-07T07:48:01;29.07;;;25.87;;
59770;SDS011;45649;53.014;6.600;2023-05-07T07:50:27;30.87;;;27.33;;
59770;SDS011;45649;53.014;6.600;2023-05-07T07:52:53;29.93;;;26.63;;
59770;SDS011;45649;53.014;6.600;2023-05-07T07:55:19;29.03;;;26.03;;
59770;SDS011;45649;53.014;6.600;2023-05-07T07:57:48;30.20;;;26.50;;
59770;SDS011;45649;53.014;6.600;2023-05-07T08:00:14;30.50;;;26.73;;
59770;SDS011;45649;53.014;6.600;2023-05-07T08:02:41;29.87;;;26.67;;
59770;SDS011;45649;53.014;6.600;2023-05-07T08:05:07;28.80;;;25.67;;
59770;SDS011;45649;53.014;6.600;2023-05-07T08:07:33;30.90;;;27.30;;
59770;SDS011;45649;53.014;6.600;2023-05-07T08:09:59;28.63;;;25.63;;
59770;SDS011;45649;53.014;6.600;2023-05-07T08:12:26;30.77;;;27.47;;
59770;SDS011;45649;53.014;6.600;2023-05-07T08:14:52;32.50;;;27.00;;
59770;SDS011;45649;53.014;6.600;2023-05-07T08:17:18;30.50;;;26.60;;
59770;SDS011;45649;53.014;6.600;2023-05-07T08:19:47;29.37;;;26.37;;
59770;SDS011;45649;53.014;6.600;2023-05-07T08:22:13;28.97;;;25.87;;
59770;SDS011;45649;53.014;6.600;2023-05-07T08:24:39;31.37;;;27.57;;
59770;SDS011;45649;53.014;6.600;2023-05-07T08:27:05;29.50;;;26.33;;
59770;SDS011;45649;53.014;6.600;2023-05-07T08:29:31;31.43;;;27.97;;
59770;SDS011;45649;53.014;6.600;2023-05-07T08:31:58;32.13;;;28.67;;
59770;SDS011;45649;53.014;6.600;2023-05-07T08:34:24;30.37;;;27.13;;
59770;SDS011;45649;53.014;6.600;2023-05-07T08:36:50;32.63;;;28.53;;
59770;SDS011;45649;53.014;6.600;2023-05-07T08:39:16;30.57;;;27.30;;
59770;SDS011;45649;53.014;6.600;2023-05-07T08:41:45;31.10;;;27.47;;
59770;SDS011;45649;53.014;6.600;2023-05-07T08:44:12;30.37;;;26.83;;
59770;SDS011;45649;53.014;6.600;2023-05-07T08:46:39;30.77;;;27.00;;
59770;SDS011;45649;53.014;6.600;2023-05-07T08:49:05;31.30;;;27.77;;
59770;SDS011;45649;53.014;6.600;2023-05-07T08:51:31;32.13;;;28.63;;
59770;SDS011;45649;53.014;6.600;2023-05-07T08:53:57;31.70;;;27.40;;
59770;SDS011;45649;53.014;6.600;2023-05-07T08:56:23;31.57;;;28.17;;
59770;SDS011;45649;53.014;6.600;2023-05-07T08:58:50;29.53;;;26.33;;
59770;SDS011;45649;53.014;6.600;2023-05-07T09:01:16;30.57;;;27.37;;
59770;SDS011;45649;53.014;6.600;2023-05-07T09:03:46;30.47;;;27.17;;
59770;SDS011;45649;53.014;6.600;2023-05-07T09:06:12;31.10;;;27.77;;
59770;SDS011;45649;53.014;6.600;2023-05-07T09:08:38;29.90;;;26.60;;
59770;SDS011;45649;53.014;6.600;2023-05-07T09:11:04;30.23;;;27.03;;
59770;SDS011;45649;53.014;6.600;2023-05-07T09:13:30;28.93;;;26.03;;
59770;SDS011;45649;53.014;6.600;2023-05-07T09:15:57;28.60;;;25.50;;
59770;SDS011;45649;53.014;6.600;2023-05-07T09:18:26;29.03;;;26.03;;
59770;SDS011;45649;53.014;6.600;2023-05-07T09:20:52;29.60;;;26.07;;
59770;SDS011;45649;53.014;6.600;2023-05-07T09:23:18;29.20;;;26.00;;
59770;SDS011;45649;53.014;6.600;2023-05-07T09:25:44;27.30;;;24.33;;
59770;SDS011;45649;53.014;6.600;2023-05-07T09:28:10;26.80;;;23.90;;
59770;SDS011;45649;53.014;6.600;2023-05-07T09:30:36;27.57;;;24.77;;
59770;SDS011;45649;53.014;6.600;2023-05-07T09:33:03;26.70;;;23.80;;
59770;SDS011;45649;53.014;6.600;2023-05-07T09:35:29;27.37;;;23.50;;
59770;SDS011;45649;53.014;6.600;2023-05-07T09:37:56;27.63;;;24.73;;
59770;SDS011;45649;53.014;6.600;2023-05-07T09:40:26;26.23;;;23.43;;
59770;SDS011;45649;53.014;6.600;2023-05-07T09:42:53;27.53;;;23.93;;
59770;SDS011;45649;53.014;6.600;2023-05-07T09:45:24;26.20;;;23.60;;
59770;SDS011;45649;53.014;6.600;2023-05-07T09:47:51;25.33;;;22.83;;
59770;SDS011;45649;53.014;6.600;2023-05-07T09:50:19;25.43;;;22.73;;
59770;SDS011;45649;53.014;6.600;2023-05-07T09:52:47;24.20;;;21.70;;
59770;SDS011;45649;53.014;6.600;2023-05-07T09:55:13;24.70;;;22.30;;
59770;SDS011;45649;53.014;6.600;2023-05-07T09:57:40;25.37;;;22.77;;
59770;SDS011;45649;53.014;6.600;2023-05-07T10:00:07;24.93;;;22.50;;
59770;SDS011;45649;53.014;6.600;2023-05-07T10:02:35;25.03;;;22.57;;
59770;SDS011;45649;53.014;6.600;2023-05-07T10:05:02;24.50;;;22.10;;
59770;SDS011;45649;53.014;6.600;2023-05-07T10:07:29;24.47;;;22.07;;
59770;SDS011;45649;53.014;6.600;2023-05-07T10:09:55;25.47;;;22.87;;
59770;SDS011;45649;53.014;6.600;2023-05-07T10:12:23;24.60;;;22.10;;
59770;SDS011;45649;53.014;6.600;2023-05-07T10:14:50;24.57;;;21.97;;
59770;SDS011;45649;53.014;6.600;2023-05-07T10:17:17;23.70;;;21.30;;
59770;SDS011;45649;53.014;6.600;2023-05-07T10:19:44;25.47;;;22.80;;
59770;SDS011;45649;53.014;6.600;2023-05-07T10:22:10;24.20;;;21.60;;
59770;SDS011;45649;53.014;6.600;2023-05-07T10:24:37;23.83;;;21.43;;
59770;SDS011;45649;53.014;6.600;2023-05-07T10:27:04;23.00;;;20.70;;
59770;SDS011;45649;53.014;6.600;2023-05-07T10:34:51;22.73;;;20.43;;
59770;SDS011;45649;53.014;6.600;2023-05-07T10:37:19;20.17;;;18.17;;
59770;SDS011;45649;53.014;6.600;2023-05-07T10:39:45;23.47;;;21.07;;
59770;SDS011;45649;53.014;6.600;2023-05-07T10:42:12;24.10;;;21.77;;
59770;SDS011;45649;53.014;6.600;2023-05-07T10:44:38;23.93;;;21.63;;
59770;SDS011;45649;53.014;6.600;2023-05-07T10:47:08;23.03;;;20.80;;
59770;SDS011;45649;53.014;6.600;2023-05-07T10:49:35;22.93;;;20.60;;
59770;SDS011;45649;53.014;6.600;2023-05-07T10:52:15;22.07;;;19.83;;
59770;SDS011;45649;53.014;6.600;2023-05-07T10:54:42;22.43;;;20.23;;
59770;SDS011;45649;53.014;6.600;2023-05-07T10:57:51;22.23;;;19.93;;
59770;SDS011;45649;53.014;6.600;2023-05-07T11:00:00;21.77;;;19.47;;
59770;SDS011;45649;53.014;6.600;2023-05-07T11:03:04;21.63;;;19.40;;
59770;SDS011;45649;53.014;6.600;2023-05-07T11:05:30;21.87;;;19.77;;
59770;SDS011;45649;53.014;6.600;2023-05-07T11:07:57;22.90;;;20.60;;
59770;SDS011;45649;53.014;6.600;2023-05-07T11:10:39;22.43;;;20.23;;
59770;SDS011;45649;53.014;6.600;2023-05-07T11:13:09;23.07;;;20.70;;
59770;SDS011;45649;53.014;6.600;2023-05-07T11:15:36;21.93;;;19.73;;
59770;SDS011;45649;53.014;6.600;2023-05-07T11:18:03;22.30;;;20.03;;
59770;SDS011;45649;53.014;6.600;2023-05-07T11:28:27;22.00;;;19.90;;
59770;SDS011;45649;53.014;6.600;2023-05-07T11:30:53;21.50;;;19.43;;
59770;SDS011;45649;53.014;6.600;2023-05-07T11:33:20;21.23;;;19.23;;
59770;SDS011;45649;53.014;6.600;2023-05-07T11:35:46;19.77;;;17.90;;
59770;SDS011;45649;53.014;6.600;2023-05-07T11:38:13;21.47;;;19.47;;
59770;SDS011;45649;53.014;6.600;2023-05-07T11:40:49;22.77;;;20.63;;
59770;SDS011;45649;53.014;6.600;2023-05-07T11:43:15;22.50;;;20.20;;
59770;SDS011;45649;53.014;6.600;2023-05-07T11:45:41;22.43;;;20.27;;
59770;SDS011;45649;53.014;6.600;2023-05-07T11:48:08;20.57;;;18.50;;
59770;SDS011;45649;53.014;6.600;2023-05-07T11:50:34;22.90;;;20.80;;
59770;SDS011;45649;53.014;6.600;2023-05-07T11:53:00;20.97;;;19.00;;
59770;SDS011;45649;53.014;6.600;2023-05-07T11:55:26;22.83;;;20.53;;
59770;SDS011;45649;53.014;6.600;2023-05-07T11:57:53;22.07;;;19.87;;
59770;SDS011;45649;53.014;6.600;2023-05-07T12:00:19;22.10;;;20.17;;
59770;SDS011;45649;53.014;6.600;2023-05-07T12:02:45;22.37;;;20.33;;
59770;SDS011;45649;53.014;6.600;2023-05-07T12:05:11;20.93;;;18.93;;
59770;SDS011;45649;53.014;6.600;2023-05-07T12:07:38;22.27;;;19.83;;
59770;SDS011;45649;53.014;6.600;2023-05-07T12:10:04;21.40;;;19.40;;
59770;SDS011;45649;53.014;6.600;2023-05-07T12:12:31;21.97;;;19.87;;
59770;SDS011;45649;53.014;6.600;2023-05-07T12:15:03;21.80;;;19.73;;
59770;SDS011;45649;53.014;6.600;2023-05-07T12:17:29;20.67;;;18.77;;
59770;SDS011;45649;53.014;6.600;2023-05-07T12:19:55;22.17;;;19.93;;
59770;SDS011;45649;53.014;6.600;2023-05-07T12:22:21;20.40;;;18.40;;
59770;SDS011;45649;53.014;6.600;2023-05-07T12:24:48;20.80;;;18.90;;
59770;SDS011;45649;53.014;6.600;2023-05-07T12:27:15;21.13;;;19.13;;
59770;SDS011;45649;53.014;6.600;2023-05-07T12:29:48;21.70;;;19.67;;
59770;SDS011;45649;53.014;6.600;2023-05-07T12:32:17;21.43;;;19.43;;
59770;SDS011;45649;53.014;6.600;2023-05-07T12:34:45;19.93;;;18.07;;
59770;SDS011;45649;53.014;6.600;2023-05-07T12:37:11;19.83;;;18.00;;
59770;SDS011;45649;53.014;6.600;2023-05-07T12:39:38;22.00;;;19.80;;
59770;SDS011;45649;53.014;6.600;2023-05-07T12:42:04;21.33;;;19.33;;
59770;SDS011;45649;53.014;6.600;2023-05-07T12:44:31;19.83;;;17.93;;
59770;SDS011;45649;53.014;6.600;2023-05-07T12:46:57;22.33;;;20.20;;
59770;SDS011;45649;53.014;6.600;2023-05-07T12:49:25;22.23;;;20.17;;
59770;SDS011;45649;53.014;6.600;2023-05-07T12:51:51;22.43;;;20.23;;
59770;SDS011;45649;53.014;6.600;2023-05-07T12:54:30;21.30;;;19.20;;
59770;SDS011;45649;53.014;6.600;2023-05-07T12:57:29;23.17;;;21.17;;
59770;SDS011;45649;53.014;6.600;2023-05-07T12:59:48;22.07;;;20.03;;
59770;SDS011;45649;53.014;6.600;2023-05-07T13:02:14;21.93;;;20.03;;
59770;SDS011;45649;53.014;6.600;2023-05-07T13:04:41;22.53;;;20.00;;
59770;SDS011;45649;53.014;6.600;2023-05-07T13:07:07;22.77;;;20.77;;
59770;SDS011;45649;53.014;6.600;2023-05-07T13:09:33;22.17;;;20.17;;
59770;SDS011;45649;53.014;6.600;2023-05-07T13:12:02;20.30;;;18.50;;
59770;SDS011;45649;53.014;6.600;2023-05-07T13:14:28;21.70;;;19.80;;
59770;SDS011;45649;53.014;6.600;2023-05-07T13:16:54;20.63;;;18.83;;
59770;SDS011;45649;53.014;6.600;2023-05-07T13:19:20;21.03;;;19.13;;
59770;SDS011;45649;53.014;6.600;2023-05-07T13:21:46;21.43;;;19.53;;
59770;SDS011;45649;53.014;6.600;2023-05-07T13:24:15;20.27;;;18.37;;
59770;SDS011;45649;53.014;6.600;2023-05-07T13:26:41;20.33;;;18.53;;
59770;SDS011;45649;53.014;6.600;2023-05-07T13:29:07;21.57;;;19.53;;
59770;SDS011;45649;53.014;6.600;2023-05-07T13:31:33;21.83;;;19.93;;
59770;SDS011;45649;53.014;6.600;2023-05-07T13:34:00;22.03;;;20.10;;
59770;SDS011;45649;53.014;6.600;2023-05-07T13:36:26;20.50;;;18.70;;
59770;SDS011;45649;53.014;6.600;2023-05-07T13:38:53;21.30;;;19.50;;
59770;SDS011;45649;53.014;6.600;2023-05-07T13:41:19;19.57;;;17.87;;
59770;SDS011;45649;53.014;6.600;2023-05-07T13:43:46;19.40;;;17.70;;
59770;SDS011;45649;53.014;6.600;2023-05-07T13:46:12;17.30;;;15.83;;
59770;SDS011;45649;53.014;6.600;2023-05-07T13:48:38;18.60;;;16.97;;
59770;SDS011;45649;53.014;6.600;2023-05-07T13:51:04;17.20;;;15.70;;
59770;SDS011;45649;53.014;6.600;2023-05-07T13:53:30;17.07;;;15.50;;
59770;SDS011;45649;53.014;6.600;2023-05-07T13:55:56;16.97;;;15.37;;
59770;SDS011;45649;53.014;6.600;2023-05-07T13:58:22;15.73;;;14.27;;
59770;SDS011;45649;53.014;6.600;2023-05-07T14:00:48;16.60;;;15.10;;
59770;SDS011;45649;53.014;6.600;2023-05-07T14:03:15;16.43;;;15.03;;
59770;SDS011;45649;53.014;6.600;2023-05-07T14:05:42;15.50;;;14.20;;
59770;SDS011;45649;53.014;6.600;2023-05-07T14:08:08;15.80;;;14.50;;
59770;SDS011;45649;53.014;6.600;2023-05-07T14:10:34;13.97;;;12.87;;
59770;SDS011;45649;53.014;6.600;2023-05-07T14:13:00;15.00;;;13.70;;
59770;SDS011;45649;53.014;6.600;2023-05-07T14:15:27;15.83;;;14.53;;
59770;SDS011;45649;53.014;6.600;2023-05-07T14:17:53;13.77;;;12.67;;
59770;SDS011;45649;53.014;6.600;2023-05-07T14:20:20;15.90;;;14.60;;
59770;SDS011;45649;53.014;6.600;2023-05-07T14:22:46;14.47;;;13.27;;
59770;SDS011;45649;53.014;6.600;2023-05-07T14:25:12;15.00;;;13.80;;
59770;SDS011;45649;53.014;6.600;2023-05-07T14:27:38;15.07;;;13.83;;
59770;SDS011;45649;53.014;6.600;2023-05-07T14:30:04;14.70;;;13.53;;
59770;SDS011;45649;53.014;6.600;2023-05-07T14:32:32;14.73;;;13.50;;
59770;SDS011;45649;53.014;6.600;2023-05-07T14:34:58;14.40;;;13.27;;